Beiseker, Canada
Current Conditions -  °F | °C
As of 9:00 AM on Thursday 30 Oct 2014 (Local Time) from CYYC Reporting Station
Moderate Fog Moderate Fog  
Wind Chill: -8°   Ceiling: 200
Heat Index: -3°   Visibility: 0.12mi
Dew Point: -4°   Wind: 8mph
Humidity: 93%   Direction: 180°S
Pressure: 30.2"   Gusts: NA
Location:  51.38°N, 113.53°W
Report Text: CYYC 301500Z 18007KT 1/8SM R17R/4000VP6000FT/U R17L/1200V1800FT/N R29/2400FT/N FZFG VV002 M03/M04 A3020 RMK FG8 FROIN / CIG VRB 1-5 SLP273
Loading
Personal Weather Stations






























Interactive Weather Map
Tropical Storm Tracking
New forecast layout! Learn more

10-Day Weather Forecast

Advertisements
Track Severe Weather on mobile